Walkerville, Montana
Current Conditions -  °F | °C
As of 7:53 AM on Friday 26 Dec 2014 (Local Time) from KBTM Reporting Station
Overcast Overcast  
Wind Chill:   Ceiling: 6000
Heat Index: 14°   Visibility: 9mi
Dew Point: 10°   Wind: 5mph
Humidity: 84%   Direction: 70°ENE
Pressure: 29.99"   Gusts: NA
Location:  45.9274°N, 112.504°W
Report Text: KBTM 261453Z AUTO 07004KT 9SM OVC060 M10/M12 A2999 RMK AO2 SNB1355E11 SLP240 P0000 60000 T11001122 51009
Loading
Personal Weather Stations






























Interactive Weather Map New forecast layout! Learn more

10-Day Weather Forecast

Advertisements
Track Severe Weather on mobile